events-overview

Kinetic Sprint

 

Overall Men

Lake Anna State Park - Spotsylvania, VA 5/11/2014 09:00AM

** Results are for the private use of participants and are the Intellectual Property of Set Up Events. Unauthorized use of these results is prohibited.

Place Bib Co Ag S NAME city/state Rank SWIM Rank T1 Rank Bike Rank T2 Rank RUN PENALTY TIME DQ
151 23MBobby StanleyBerryville VA1700:10:52300:01:23100:37:52100:00:35100:17:53 01:08:33 
2169 25MBrady ThomasVirginia Beach VA1300:10:37400:01:32200:37:53500:00:39700:19:06 01:09:45 
3233 37MJohn ChambersWashington DC1600:10:52800:01:37300:38:37800:00:43200:18:03 01:09:48 
4123 47MStephen EidAshburn VA100:09:163100:01:56700:40:32200:00:371600:20:26 01:12:45 
533 39MShaun NicholsChester VA1400:10:391500:01:43400:38:521000:00:452500:21:10 01:13:07 
6435 43MLee BoyerAlexandria VA2100:11:04700:01:36600:39:275100:01:011400:20:13 01:13:19 
7430 45MSean PierceAlexandria VA3600:11:443900:02:01500:39:123500:00:561300:20:02 01:13:54 
873 34MJoey HessWoodbridge VA600:10:023600:01:592900:42:522200:00:53300:18:31 01:14:15 
9285 28MMatthew PughChesterfield VA5000:12:11900:01:381000:41:05300:00:39500:19:05 01:14:35 
10305 27MCharles KreuzbergerNorfolk VA2800:11:28600:01:361100:41:061200:00:491500:20:23 01:15:20 
1188 38MAdam StolzbergArlington VA11000:13:203300:01:58800:40:443300:00:55800:19:22 01:16:17 
12249 54MGreg NelsonOlney MD1900:10:567400:02:211300:41:279300:01:091700:20:27 01:16:19 
13555 28MCorey MillerAlexandria VA2600:11:212700:01:512700:42:444200:00:58900:19:37 01:16:30 
14508 32MBarry McCarronWashington DC11600:13:25200:01:212200:42:201700:00:52600:19:06 01:17:02 
15455 27MKevin MallonSpringfield VA900:10:28500:01:343000:42:545300:01:013300:21:32 01:17:28 
16279 30MPeter McGuireBethesda MD6600:12:311000:01:391200:41:0710200:01:122700:21:18 01:17:45 
17191 30MRyan WernerWashington DC4200:12:002200:01:493700:43:222900:00:541100:20:01 01:18:03 
18431 39MMichael SkeeleArlington VA400:09:545000:02:072000:42:129700:01:107100:22:52 01:18:14 
19221 46MBill DeatonRuckersville VA4600:12:041100:01:39900:41:001600:00:517200:22:56 01:18:28 
20355 29MSean FishWashington DC3100:11:347000:02:205400:44:324600:01:001200:20:02 01:19:25 
21414 27MJoe KrasinskasVienna VA3900:11:481400:01:414500:43:568700:01:082600:21:13 01:19:45 
22388 32MSteve FirkserCherry Hill NJ4500:12:041200:01:405300:44:261100:00:472300:21:03 01:19:58 
23460 31MAndrew CallihanRichmond VA15100:14:192400:01:501600:41:483200:00:553100:21:30 01:20:20 
24264 34MJose RamosArlington VA10900:13:2013200:02:502500:42:408100:01:071900:20:30 01:20:25 
25155 31MDenis MoffettAlexandria VA11300:13:242000:01:482400:42:361400:00:514600:21:54 01:20:32 
26259 49MKevin HickeyVirginia Beach VA10500:13:191800:01:481800:41:567700:01:065900:22:24 01:20:32 
27170 38MMonte LewisMontgomery Village MD7900:12:483200:01:563400:42:595400:01:024700:21:55 01:20:38 
28611C29MRyan SilerArlington VA6900:12:396100:02:163900:43:262300:00:533400:21:32 01:20:44 
2982 51MEric MackemReston VA5600:12:225200:02:093200:42:557100:01:056100:22:30 01:21:00 
30514 18MJake KendrickManassas VA1800:10:533800:02:008200:46:029900:01:103200:21:32 01:21:36 
PlaceBibCoAgSNAMEcity/stateRankSWIMRankT1RankBikeRankT2RankRUNPENALTYTIMEDQ
31196 37MAndrew JonesArlington VA13400:13:507100:02:201500:41:486900:01:056400:22:38 01:21:38 
32190 24MKempsey ClarkRockville MD2200:11:081900:01:488000:46:0114700:01:222900:21:27 01:21:44 
33209 55MAlan DixonWashington DC8400:12:505900:02:152100:42:142600:00:5410100:24:03 01:22:15 
3485 28MJohn ClossArlington VA800:10:2010000:02:345900:44:514300:00:598900:23:36 01:22:20 
35114 45MDouglas DudgeonStafford VA1000:10:297300:02:214600:43:579600:01:0911900:24:29 01:22:24 
36526 29MGregory WingWashington DC9100:13:054200:02:022800:42:4511600:01:158300:23:22 01:22:26 
37187 60MThomas StroupGreat Falls VA4100:12:002500:01:514300:43:473000:00:549900:24:00 01:22:31 
38267 44MDarren BeilsteinWilliamsburg VA6100:12:285100:02:093500:43:116300:01:039200:23:42 01:22:32 
3942 48MDaniel AndersonRockville MD3000:11:3118100:03:145000:44:1516700:01:275400:22:16 01:22:42 
40324 24MMax LanderWashington DC6000:12:2711800:02:4311400:47:479000:01:09400:18:39 01:22:42 
41284 50MChristopher VaughanWashington DC2000:10:585300:02:105500:44:327300:01:0510200:24:04 01:22:47 
42536 40MJames DillonMidlothian VA5400:12:166200:02:165200:44:231900:00:527600:23:05 01:22:50 
43143 32MSteven VadnaisArlington VA13700:13:522800:01:525600:44:33600:00:394800:21:57 01:22:51 
445MM32MAndrew MorganLorton VA21200:15:367800:02:221900:42:1210700:01:134000:21:35 01:22:56 
457 58MGreg GuintherRichmond VA5300:12:153400:01:583300:42:563600:00:5613000:24:54 01:22:57 
46131 26MZach BirnbaumViena VA3800:11:484500:02:033600:43:154000:00:5713800:25:15 01:23:16 
4770 47MThom MukriWoodbridge VA15900:14:254600:02:034100:43:352500:00:535800:22:22 01:23:16 
4865 28MJohnathan SteinArlington VA12200:13:324100:02:016900:45:135800:01:023500:21:33 01:23:20 
49376 24MMiles BloomArlington VA1500:10:5113500:02:5110300:47:1112100:01:152800:21:26 01:23:32 
50443 61MStephen GodwinBethesda MD5100:12:1116300:03:054000:43:3415900:01:248200:23:22 01:23:34 
51468 51MStephen O'DonnellWashington DC9800:13:139000:02:294900:44:0417100:01:296000:22:28 01:23:42 
52504 30MEvin WickWashington DC11800:13:283500:01:597700:45:414700:01:005300:22:15 01:24:20 
5399 42MJeff WebbArlington VA6800:12:365400:02:114800:44:019500:01:0911800:24:29 01:24:24 
54307 35MEric KlintbergArlington VA7200:12:416000:02:155100:44:2220800:01:388700:23:31 01:24:25 
55185 26MKurt GibelCentreville VA4300:12:001300:01:411400:41:381300:00:5022700:28:29 01:24:36 
564MM38MAaron ShulerAlexandria VA12900:13:4310800:02:396000:44:528400:01:085500:22:18 01:24:38 
57531 50MLowell GouldRocky Point NC4900:12:11100:01:156100:44:58400:00:3916500:25:57 01:24:57 
5834 35MMansur MendizabalWashington DC13500:13:5129700:04:592600:42:4424600:01:533800:21:34 01:24:59 
59359 42MChad RicknerChesapeake VA12100:13:323700:01:598500:46:085700:01:025600:22:21 01:25:01 
6035 33MTimothy OrrChantilly VA16700:14:332600:01:517900:45:4910400:01:124100:21:40 01:25:04 
61172 47MBen HaleSterling VA8100:12:4917800:03:133100:42:5523500:01:4812100:24:30 01:25:12 
PlaceBibCoAgSNAMEcity/stateRankSWIMRankT1RankBikeRankT2RankRUNPENALTYTIMEDQ
62379 28MRob HallidayArlington VA2700:11:216700:02:1816000:49:3211200:01:142200:20:56 01:25:19 
63342 37MArnel AlverioHaymarket VA6400:12:308900:02:297100:45:2314300:01:219100:23:41 01:25:23 
64426 34MChristopher CatalanoArlington VA12800:13:422300:01:495800:44:4110500:01:1310300:24:07 01:25:30 
65551 47MCharles KendallOak Hill VA7400:12:435800:02:146800:45:124400:00:5911700:24:26 01:25:33 
6610MM27MLukas VucskoChesapeake VA14000:13:545500:02:127300:45:3212000:01:156700:22:44 01:25:35 
67456 43MScott McLallenLorton VA200:09:4219100:03:1911600:47:503800:00:569500:23:53 01:25:38 
68216 35MBrandon CogswellArlington VA12500:13:359800:02:342300:42:3616800:01:2815300:25:34 01:25:43 
69219 30MBenjamin RichardsArlington VA4800:12:0811300:02:416600:45:1018400:01:3211200:24:16 01:25:46 
70583 49MTodd PedersonCorapeake NC10400:13:196500:02:184200:43:427000:01:0515000:25:30 01:25:51 
71301 46MAndrew McCabeAshburn VA15600:14:2327600:04:174400:43:4923700:01:494300:21:44 01:26:00 
72201 40MJames NosalAshbyrn VA7100:12:4010100:02:348300:46:0418000:01:318000:23:18 01:26:06 
73518 37MGarth KaliczakSuitland MD4400:12:0414800:02:594700:44:0118700:01:3315400:25:37 01:26:12 
743MM28MDavid ColmanArlington VA16600:14:3314100:02:5212000:47:553100:00:551000:19:59 01:26:12 
75179 44MJeffrey HorwitzArlington VA9600:13:123000:01:549900:47:0312500:01:167000:22:49 01:26:13 
76705NM41MMichael KainuFredericksburg VA6200:12:3013800:02:5211700:47:5020700:01:383700:21:33 01:26:22 
77310 25MMichael DuncansonVienna VA23500:16:2210600:02:386500:45:0816400:01:272400:21:06 01:26:39 
78481 39MCharles ShedrickWashington DC12700:13:382900:01:548900:46:222800:00:5410800:24:13 01:26:58 
79420 33MRyan TrollWashington DC21400:15:464800:02:057400:45:373700:00:566500:22:39 01:27:01 
8094 56MJames JeremiahFairfax VA8000:12:484300:02:0212500:48:0112800:01:167300:22:57 01:27:03 
81502 47MBob LytleHerndon VA17300:14:3814500:02:566700:45:107800:01:067900:23:16 01:27:05 
82164 47MTodd MackertManassas VA17900:14:4517700:03:125700:44:4019000:01:347400:22:58 01:27:06 
83258 53MJoel IselyPoquoson VA4000:11:558000:02:257500:45:4011900:01:1516700:26:02 01:27:14 
84132 29MJohn MileyFalls Church VA9000:13:0317100:03:0913700:48:316400:01:043600:21:33 01:27:18 
85524 51MDavid CadieuxChesapeake VA3500:11:4313300:02:518100:46:0122900:01:4513300:25:05 01:27:24 
86362 26MDarin StiefvaterGlen Allen VA8800:13:011600:01:4417700:50:201500:00:513900:21:34 01:27:27 
87311 41MNicholas HillTakoma Park MD19900:15:135700:02:1410500:47:188900:01:094200:21:44 01:27:36 
88570 36MBrandon SmithRichmond VA8300:12:507500:02:227600:45:4117200:01:3014400:25:23 01:27:42 
89117 46MJames RosenRichmond VA5500:12:2016200:03:0415500:49:138800:01:095200:22:09 01:27:53 
9057 46MDave KayeaAnnapolis MD5200:12:128600:02:2810000:47:0518500:01:3212300:24:41 01:27:56 
91208 52MGreg TuckMechanicsville VA13900:13:537900:02:2413300:48:2410900:01:145000:22:05 01:27:57 
92436 44MBrian KennedyBurke VA11900:13:309300:02:316300:45:0419500:01:3614900:25:30 01:28:08 
PlaceBibCoAgSNAMEcity/stateRankSWIMRankT1RankBikeRankT2RankRUNPENALTYTIMEDQ
9325 31MLing ChenCentreville VA15000:14:186400:02:186200:45:0214000:01:2113900:25:15 01:28:12 
94363 22MJeremy PalmerCollege Park MD16900:14:3518900:03:1814000:48:3810600:01:132000:20:33 01:28:15 
95707NM29MDan ClarkWashington DC14300:13:598500:02:2711300:47:46     01:28:21 
96589 40MMartin OakhillVienna VA5700:12:2327000:04:139200:46:376100:01:0310500:24:09 01:28:23 
97730 46MCharles BarnesVienna VA17700:14:4327700:04:219000:46:264100:00:584900:22:02 01:28:27 
98297 45MTerry ThorntonGlen Allen VA11400:13:252100:01:499500:46:518500:01:0814200:25:21 01:28:32 
99168 39MGeoff SinclairBurke VA500:10:009700:02:3310200:47:0927300:02:0718900:26:57 01:28:44 
100427 29MKevin BushWashington DC14600:14:0310300:02:378400:46:0812900:01:176800:22:4400:02:0001:28:47 
101413 24MKyle BlackwellPaoli PA2900:11:3012900:02:5011100:47:3615300:01:2315700:25:43 01:29:00 
102593 29MBrian RocheArlington VA21000:15:3424500:03:553800:43:2413100:01:177500:22:5800:02:0001:29:06 
1038MM38MMatthew JemmottArlington VA17800:14:4412300:02:4610400:47:167400:01:068500:23:26 01:29:16 
10432 39MJoe MoralesSouth Riding VA14900:14:109600:02:328700:46:207500:01:0613700:25:14 01:29:21 
105372 49MWilliam PriorFairfax Station VA10000:13:1416500:03:068600:46:1516500:01:2715100:25:31 01:29:31 
106288 23MMatthew BohmkeFredericksburg VA13100:13:4515500:03:0218900:50:535600:01:022100:20:55 01:29:35 
107580 49MDavid ZemoCulpeper VA13200:13:4610500:02:387000:45:165500:01:0219200:26:59 01:29:40 
108618MC52MMichael MowlesEl Paso TX2500:11:206900:02:2012300:47:595200:01:0119500:27:04 01:29:42 
109140 32MMatt GreytakHerndon VA13000:13:4420000:03:2411800:47:539800:01:109000:23:38 01:29:48 
11086 60MCharlie WatkinsNorfolk VA2400:11:2017300:03:1011200:47:4420300:01:3816600:26:00 01:29:50 
11120 43MMark LindsayHigh Point NC14100:13:5513700:02:5213200:48:2114800:01:228600:23:26 01:29:54 
112344 30MJonathan ScanlonArlington VA20400:15:2019700:03:2212800:48:059100:01:095100:22:06 01:30:00 
113566 32MAllen WuFairfax VA10300:13:1822500:03:4111900:47:5313200:01:1810000:24:02 01:30:10 
11487 35MJustin JacobsThe Plains VA9900:13:1415000:03:0010700:47:2021300:01:4013100:25:00 01:30:12 
115223 49MAaron GoldFalls Church VA1100:10:3519400:03:2017800:50:2012200:01:1612500:24:44 01:30:12 
116592 55MDwight WolfNewport News VA300:09:425600:02:139400:46:4523400:01:4725600:29:50 01:30:17 
117534 45MMarty DejosephWilmington NC9200:13:0512000:02:4416700:49:4615100:01:228400:23:23 01:30:19 
118601C37MElliott LaneWashington DC8600:12:524000:02:016400:45:053400:00:5525000:29:30 01:30:21 
119354 34MAaron KotaSpotsylvania VA19100:15:0211600:02:4214500:48:566700:01:046600:22:40 01:30:23 
120544 45MBob KellerWilliamsburg VA7000:12:408800:02:299800:46:5711300:01:1420100:27:17 01:30:34 
121177 44MChuck PotterGermantown MD15200:14:1914400:02:567800:45:41     01:30:39 
122527 51MSteven FeldmanWashington DC1200:10:3518000:03:138800:46:2119600:01:3624000:29:01 01:30:44 
123214 33MChris JohnsonCentreville VA5900:12:2511700:02:4220100:51:3415400:01:237700:23:10 01:31:12 
PlaceBibCoAgSNAMEcity/stateRankSWIMRankT1RankBikeRankT2RankRUNPENALTYTIMEDQ
124289 51MGeorge SabolVirginia Beach VA15300:14:204700:02:0413100:48:192100:00:5215500:25:39 01:31:13 
125299 51MDennis MyersChesapeake VA11700:13:2714900:03:0013900:48:3419200:01:3412400:24:43 01:31:16 
12641 64MBrad MetcalfRichmond VA16100:14:264900:02:0513000:48:1115200:01:2313500:25:14 01:31:17 
127126 44MAdam RubenWashington DC10600:13:199500:02:3118000:50:2414500:01:229300:23:50 01:31:24 
128400 57MBen FoyMurrysville PA9300:13:087200:02:2014200:48:4713700:01:1916300:25:54 01:31:26 
129480 27MJonathan MontetWashington DC7700:12:456600:02:1813600:48:2614100:01:2118700:26:53 01:31:41 
130266 34MJeff BerggrenAlexandria VA21900:15:5918500:03:1710100:47:058600:01:0811300:24:16 01:31:43 
13164 29MJordan KwokWashington DC24500:16:3510400:02:3814300:48:497600:01:066900:22:48 01:31:54 
132475 66MLarry AtkinsWashington DC17100:14:3517400:03:109300:46:3824200:01:5315800:25:45 01:31:59 
13350 37MStephen WootenReston VA24000:16:3015900:03:029100:46:2914200:01:2112200:24:40 01:32:00 
134573 34MDaniel AlvarezWashington DC21600:15:5513900:02:527200:45:2820600:01:3817500:26:16 01:32:07 
135401 37MRoger TorresWashington DC23300:16:2020400:03:2814600:48:5723100:01:464400:21:48 01:32:16 
136545 15MMichael KellerWilliamsburg VA3300:11:4012500:02:4817500:50:146200:01:0318000:26:34 01:32:17 
137238 32MRobert GarnseyAshburn VA12600:13:3720100:03:2621400:52:1621500:01:403000:21:30 01:32:27 
138525 52MChris WilmotWarrenton VA9500:13:0929600:04:4814800:49:00900:00:4412700:24:51 01:32:30 
139130 44MSteve ElsbergArlington VA24400:16:3419200:03:1912100:47:5727200:02:066300:22:37 01:32:32 
140558 45MFerris SalhabManakin Sabot VA18500:14:5318300:03:1515300:49:0915000:01:229800:23:57 01:32:35 
141303 53MBrian LeonardOak Hill VA16800:14:3517600:03:1215200:49:0821900:01:4210600:24:12 01:32:46 
142731 51MLeonard BechtelArlington VA7800:12:4716100:03:0315100:49:0510100:01:1218300:26:43 01:32:48 
143280 47MBrian SmithRadford VA14500:14:038300:02:2719000:50:5319300:01:349700:23:57 01:32:53 
144415 61MBarry DiciccoOakton VA11200:13:2410200:02:3511000:47:267900:01:0722900:28:33 01:33:03 
145357 34MJason MillerSuffolk VA6300:12:307600:02:2216500:49:445000:01:0120800:27:33 01:33:07 
146614MC47MDavid McCreadyArlington VA9400:13:0816800:03:0819100:50:568000:01:0712800:24:51 01:33:09 
147346 31MGreg MowlesAlexandria VA7300:12:4114000:02:5221500:52:206800:01:0511500:24:17 01:33:14 
148347 45MMark MillerArlington VA10200:13:159400:02:3110600:47:1913400:01:1823900:28:57 01:33:19 
149229 28MCraig HerlihyArlington VA13600:13:5112100:02:4519300:51:0118100:01:3111100:24:15 01:33:22 
150622MC48MTodd SmithLorton VA10800:13:208400:02:2717300:50:0615600:01:2417000:26:08 01:33:23 
151385 34MBrett MillerFairfax VA8700:12:5714200:02:5417100:49:58700:00:4219000:26:58 01:33:27 
152487 29MAndrew ClementWashington DC8500:12:516300:02:1823300:53:1014900:01:229400:23:50 01:33:29 
153335 64MDavid ConoverGreat Falls VA15800:14:241700:01:4813400:48:2418300:01:3220400:27:26 01:33:32 
15458 47MJ. Michael MonacoEdgewater MD2300:11:1911200:02:4114900:49:0325000:01:5623000:28:36 01:33:33 
PlaceBibCoAgSNAMEcity/stateRankSWIMRankT1RankBikeRankT2RankRUNPENALTYTIMEDQ
155329 42MChristopher BrownBroad Run VA3200:11:398200:02:2616900:49:558200:01:0723400:28:46 01:33:52 
15671 39MTimothy HuddlestonArlington VA14400:14:0222300:03:3921800:52:3014600:01:226200:22:33 01:34:05 
15777 46MDavid KoppenhaverChesapeake VA12000:13:324400:02:0310800:47:2412700:01:1625800:30:00 01:34:13 
158366 20MTimothy HenselCollege Park MD16300:14:3112400:02:4722300:52:522400:00:537800:23:16 01:34:17 
159559 48MDavid MostonManassas VA19800:15:1121700:03:379700:46:5527800:02:1517900:26:25 01:34:22 
160569 47MJoel BrouWashington DC23100:16:1817000:03:0912900:48:0622200:01:4313400:25:12 01:34:26 
161432 29MDaniel DavisAlexandria VA20600:15:2511000:02:4013800:48:313900:00:5719400:27:02 01:34:33 
162383 33MErik RuselowskiWashington DC12400:13:359100:02:2918300:50:2812400:01:1619700:27:06 01:34:52 
163105 33MJarrett ConwayAlexandria VA18200:14:5013400:02:5112600:48:0210800:01:1321500:27:58 01:34:53 
164446 14MBrandon BaumgartnerAlexandria VA14200:13:5719000:03:1819500:51:0511100:01:1414600:25:26 01:34:58 
165374 40MMatthew GotlinOwings Mills MD17600:14:4225300:03:5914400:48:5517400:01:3016400:25:56 01:35:00 
166226 31MPatrick CrileArlington VA20300:15:1919500:03:2114700:48:5922100:01:4315600:25:41 01:35:01 
167493 44MJim FooteWaldorf MD23400:16:2118800:03:1712200:47:5813300:01:1817300:26:11 01:35:03 
168404 32MAlexander BaileyWashington DC12300:13:3312700:02:4923400:53:1119900:01:3710400:24:08 01:35:16 
169522 41MVijay DsouzaWashington DC20200:15:1924000:03:5216800:49:5227400:02:1111400:24:17 01:35:28 
1701MM36MJay SterrettAlexandria VA21300:15:3710900:02:4016300:49:3818200:01:3216800:26:04 01:35:29 
171248 30MBrian KleshArlington VA20800:15:3015200:03:0111500:47:4917300:01:3021100:27:45 01:35:32 
172461 40MSam SalhabManakin Sabot VA18000:14:4622000:03:3810900:47:2428200:02:1820500:27:29 01:35:33 
173192 44MMatthew LegerArlington VA16000:14:2616700:03:0820300:51:3611000:01:1413600:25:14 01:35:35 
174466 48MMark HowshamOakton VA18400:14:5229400:04:469600:46:5228900:02:3018400:26:47 01:35:45 
175368 32MMatt RoushAlexandria VA8200:12:4915300:03:0127300:56:1121100:01:395700:22:21 01:35:59 
176159 33MElvis StumbergsWashington DC24900:16:4224100:03:5215700:49:2122300:01:4311600:24:24 01:36:00 
177178 56MMark RyanManassas VA11100:13:218700:02:2815600:49:1624400:01:5324500:29:10 01:36:06 
178163 34MDaniel DellerReston VA19700:15:0916000:03:0221100:52:0716200:01:2612000:24:30 01:36:13 
179607C34MSted GarberArlington VA17000:14:3520500:03:2919200:50:5726400:02:0214000:25:16 01:36:16 
180529 32MJoshua MorinMcLean VA6700:12:3220300:03:2722900:53:0324900:01:5514300:25:22 01:36:18 
181693NM47MJeff OlnhausenFalls Church VA19600:15:0828700:04:3719800:51:176600:01:0411000:24:15 01:36:20 
182688NM33MEric MedoffArlington VA19300:15:0512600:02:4916600:49:4511400:01:1420600:27:32 01:36:23 
18383 50MKylor WhitakerHaymarket VA18100:14:486800:02:1917900:50:2210300:01:1221400:27:52 01:36:32 
184147 54MThomas BlackVienna VA4700:12:0519300:03:1916100:49:3523600:01:4825500:29:50 01:36:35 
185198 36MDaniel BeamanAlexandria VA32000:23:5915400:03:011700:41:5316900:01:2917700:26:18 01:36:39 
PlaceBibCoAgSNAMEcity/stateRankSWIMRankT1RankBikeRankT2RankRUNPENALTYTIMEDQ
186240 50MAlex TaitSilver Spring MD15700:14:2418200:03:1519700:51:1725700:02:0015900:25:45 01:36:39 
187184 20MErik AuerArlington VA25500:16:559200:02:3025400:54:382700:00:544500:21:49 01:36:44 
18830 39MMichiel Van ZadelSterling VA25200:16:49      12600:24:47 01:36:51 
18975 51MRj RedstromPowhatan VA16500:14:3212200:02:4617600:50:1817600:01:3021200:27:48 01:36:52 
190395 25MBryan NolanArlington VA25400:16:5415100:03:0115000:49:0415700:01:2418100:26:39 01:37:00 
191149 33MAlex ChisholmReston VA6500:12:3116400:03:0520000:51:2917900:01:3122500:28:27 01:37:01 
192371 28MTorrey SmithArlington VA8900:13:0222700:03:4125300:54:3219100:01:3410900:24:14 01:37:02 
193133 46MPaul LePotomac Falls VA22400:16:0612800:02:4917000:49:5713500:01:1819800:27:09 01:37:19 
194411 33MTodd FinkboneWashington DC26500:17:2822400:03:4024200:53:4527100:02:061800:20:29 01:37:25 
195403 52MCharlie PennFredericksburg VA20100:15:1916900:03:0924300:53:5624300:01:538800:23:33 01:37:48 
196409 50MPeter MattesCentreville VA17400:14:4020200:03:2616200:49:3825400:01:5822000:28:14 01:37:54 
197150 31MBen ChisholmReston VA7500:12:4413000:02:5026200:55:056500:01:0417400:26:15 01:37:56 
1986MM42MGrigory MedinaNorfolk VA21100:15:3524600:03:5518200:50:2627500:02:1316100:25:52 01:37:59 
19995 65MJohn TanseyWilliamsburg VA18600:14:539900:02:3412400:48:0117700:01:3027200:31:12 01:38:09 
200375 45MDavid DolezelCalifornia MD29600:19:3011400:02:4215800:49:269400:01:0914500:25:25 01:38:11 
201373 36MAmar TappouniAlexandria VA26700:17:2821900:03:3818400:50:2915500:01:2314100:25:17 01:38:13 
202281 29MJaymes DresselApo NY29700:19:3511100:02:4017400:50:1221800:01:4110700:24:12 01:38:19 
203356 18MNick PolanoskySpotsylvania VA13300:13:4822100:03:3822100:52:401800:00:5220700:27:33 01:38:29 
204345C28MChad BartlettGaithersburg MD13800:13:5315700:03:0221300:52:1011500:01:1422600:28:27 01:38:44 
205256 34MJeremy JensenWashington DC3700:11:4414300:02:5521600:52:2213000:01:1726900:30:51 01:39:07 
206623MC41MChad HamelFalls Church VA22500:16:0711900:02:4321900:52:384500:00:5919900:27:13 01:39:38 
20755 55MAl NavidiRockville MD29300:18:5518700:03:1715900:49:3020400:01:3818800:26:55 01:40:13 
208211 49MBertrand RigaldiesCharlottesville VA9700:13:1328300:04:3020500:51:5328300:02:2222100:28:18 01:40:15 
209606C31MNathan FoleyCharlottesville VA24300:16:3221800:03:3820400:51:4725500:01:5817800:26:22 01:40:15 
210585 47MRichard PittmanAshburn VA19200:15:0320600:03:2918700:50:4024700:01:5424600:29:13 01:40:17 
21111MM43MFrederic Tuset-AnresNorfolk VA23200:16:1925400:04:0026700:55:1719400:01:348100:23:20 01:40:29 
212167 56MDavid CooperAshburn VA24600:16:3715600:03:0219400:51:0216000:01:2522400:28:26 01:40:30 
213186 36MSteven FeldsteinWashington DC27500:17:4329800:05:0118100:50:2528400:02:2313200:25:05 01:40:34 
214175 42MCraig SimpsonGreat Falls VA27800:17:4726500:04:1016400:49:4421400:01:4020200:27:21 01:40:40 
21574 42MKip PrestholdtAlexandria VA5800:12:2420900:03:3221200:52:1021000:01:3924100:29:0300:02:0001:40:47 
216684NM33MLuke WhittingtonAshburn VA28100:17:5721600:03:3718800:50:4121200:01:4020300:27:23 01:41:17 
PlaceBibCoAgSNAMEcity/stateRankSWIMRankT1RankBikeRankT2RankRUNPENALTYTIMEDQ
217712NM38MTravis LefeverJamestown NC27700:17:4527500:04:1615400:49:1126200:02:0122300:28:23 01:41:36 
218141 53MDave MiddletonAshburn VA14800:14:1013600:02:5224700:54:1227900:02:1521900:28:12 01:41:39 
219334 38MDavid OcasioLeesburg VA           01:42:05 
220624MC44MMichael WeberVirginia Beach VA16200:14:2719800:03:2223600:53:2019800:01:3724700:29:22 01:42:05 
221394 42MEugene GuilaranArlington VA24200:16:3214600:02:5922200:52:518300:01:0823200:28:41 01:42:08 
22236 39MJustin NerodaAshburn VA30900:20:5326100:04:0617200:50:009200:01:0917600:26:18 01:42:24 
223519 43MChris DickeyMidlothian VA29200:18:5026700:04:1212700:48:0530800:03:1821700:28:09 01:42:32 
224696NM30MMatt HollandClifton VA19500:15:0826800:04:1222400:52:5322000:01:4223500:28:49 01:42:42 
225386 32MKyle AdamsArlington VA25900:17:0824400:03:5524100:53:3120000:01:3719300:27:00 01:43:08 
226708NM24MMichael RiccardFairfax VA26800:17:2823800:03:4719900:51:2821700:01:4123600:28:50 01:43:12 
227489 53MEdward LustigCharlotte Hall MD19000:15:0220800:03:3222800:53:0213800:01:1926500:30:28 01:43:21 
22893 70MDavid GearinArlington VA17500:14:4121300:03:3313500:48:2528600:02:2529300:34:23 01:43:27 
229697NM45MRichard PealFalls Church VA26000:17:1624300:03:5424500:54:0814400:01:2218500:26:51 01:43:28 
23037 19MAdam DavisMidlothian VA19400:15:0826600:04:1226800:55:336000:01:0321000:27:41 01:43:35 
231369 30MTravis ThekkudanArlington VA28300:17:5921200:03:3325200:54:2423900:01:4916200:25:54 01:43:37 
232339 52MRay MontgomeryHampton VA15500:14:2123000:03:4220800:52:0426300:02:0127300:31:32 01:43:39 
233587 33MDerrick RychlikCulpeper VA18700:14:5428600:04:3423100:53:0923000:01:4624900:29:29 01:43:51 
234231 24MMatt StevensBaltimore MD700:10:0610700:02:3930501:02:0012600:01:1621600:28:03 01:44:02 
235180 22MLeor ReefWashington DC10100:13:1517500:03:1124600:54:1218600:01:3327600:32:01 01:44:10 
236215 33MMatthew OwenAlexandria VA27000:17:327700:02:2222700:53:0213900:01:2025700:29:56 01:44:11 
23762 50MAndrew BaillieNokesville VA27200:17:3426900:04:1320600:51:5924000:01:5023100:28:40 01:44:14 
238380 38MIvan IversonHaymaket VA20000:15:1423100:03:4326300:55:1022400:01:4322800:28:30 01:44:17 
239685NM41MJess WeidmanRichmond VA30200:20:0917200:03:1023200:53:1011700:01:1519100:26:59 01:44:41 
240314 45MRobert MillerChester VA23800:16:2421400:03:3422500:53:0012300:01:1626700:30:31 01:44:44 
241118 37MNick HobenPartlow VA27400:17:3921100:03:3225700:54:5121600:01:4119600:27:05 01:44:46 
242512 47MOliver PottsArlington VA24700:16:4121000:03:3227800:57:305900:01:0316900:26:06 01:44:51 
243701NM30MTsvetomir VretenarovWashington DC22000:16:0030300:05:1427600:56:4816600:01:2714800:25:29 01:44:57 
244452 33MRyan MrozFalls Church VA21500:15:5431400:06:0526900:55:4229000:02:3012900:24:52 01:45:01 
245571 51MGarry YoungArlington VA18300:14:5127200:04:1425800:54:5426900:02:0424400:29:09 01:45:10 
246486 58MDaniel StichnotLexington KY20700:15:2631100:05:5323800:53:214900:01:0125400:29:49 01:45:27 
247621MC53MHampton OberleAnnandale VA23600:16:2328200:04:3025900:54:5525800:02:0020900:27:40 01:45:27 
PlaceBibCoAgSNAMEcity/stateRankSWIMRankT1RankBikeRankT2RankRUNPENALTYTIMEDQ
248704NM31MGerald WynnAlexandria VA31100:21:4022600:03:4124000:53:2913600:01:1815200:25:32 01:45:38 
249492 29MArup MallikWashington DC25300:16:5126000:04:0623700:53:2025600:02:0025100:29:31 01:45:46 
250112 54MTom AventArlington VA22100:16:0117900:03:1324800:54:1426800:02:0426200:30:17 01:45:47 
251323 35MMark TaylorWashington DC31600:22:3930400:05:1714100:48:4226100:02:0120000:27:13 01:45:49 
252613MC43MKevin McNallyFrederick MD28400:18:0421500:03:3619600:51:1322500:01:4327900:32:07 01:46:41 
25319 39MEric CookChesapeake VA28700:18:2222900:03:4218500:50:3622600:01:4428700:33:06 01:47:27 
254604C32MDavid CooperAlexandria VA27600:17:4516600:03:0826000:54:5919700:01:3626300:30:18 01:47:44 
255605C31MFernando PorterWashington DC32100:24:0814700:02:5921700:52:2817500:01:3018200:26:42 01:47:45 
256568 51MNeil SemmelBear DE14700:14:0523300:03:4420900:52:0628800:02:2829500:35:32 01:47:52 
25766 46MThomas RobisonAlexandria VA25800:17:068100:02:2522000:52:3925900:02:0027800:32:0600:02:0001:48:14 
258268 39MDion DavitianFairfax VA22700:16:1028400:04:3226600:55:1524800:01:5426400:30:27 01:48:17 
259144 29MMichael KimoshWashington DC11500:13:2528100:04:2624400:54:0131400:04:0828600:32:59 01:48:57 
260290 55MJack WilbernVienna VA20500:15:2130100:05:0625000:54:1626500:02:0228000:32:15 01:48:59 
261408 39MDevon KramerAnnandale VA           01:49:15 
262616MC41MMichael NearyGainesville VA30800:20:4913100:02:5018600:50:4030100:03:0428200:32:25 01:49:46 
263189 22MManar ZaghlulaWashington DC31200:21:5930600:05:1926100:55:0023200:01:4716000:25:49 01:49:51 
264127 28MNathaniel GreesonWashington DC28600:18:2130900:05:3727100:55:5317000:01:2923300:28:43 01:50:01 
265612MC56MRichard DumeneBarboursville VA22200:16:0419600:03:2121000:52:0722700:01:4530200:37:04 01:50:18 
266254 58MPaul FosterLaytonsville MD29800:19:4228000:04:2324900:54:1629500:02:4625200:29:34 01:50:39 
267171 40MDavid HumphreysHerndon VA10700:13:2030800:05:3728900:59:4930200:03:0523700:28:56 01:50:45 
26846 45MChristopher BakerWoodbridge VA20900:15:3425600:04:0228700:59:3629300:02:4324300:29:08 01:51:01 
269349 38MMatt KuryloFredericksburg VA23900:16:2725200:03:5928500:59:0420100:01:3725900:30:02 01:51:07 
270619MC43MScott PitsleyHighland MD27900:17:5123500:03:4520700:52:0116300:01:2629900:36:19 01:51:20 
271703NM28MJordan RhodesWashington DC29000:18:4423900:03:4830101:01:3711800:01:1517100:26:08 01:51:30 
272291 42MSiddharth ShahArlington VA28500:18:1924900:03:5728400:59:0228500:02:2321300:27:51 01:51:30 
27328 54MRick FayyadRockville MD29500:19:2015800:03:0223500:53:1328000:02:1629200:34:20 01:52:08 
274609C35MCharlie WilkesArlington VA26600:17:2820700:03:3127900:57:3624100:01:5127500:31:47 01:52:11 
275584 28MTung PhungSterling VA31900:23:3818400:03:1625600:54:4918800:01:3323800:28:56 01:52:11 
276165 34MBenjamin BerlinWashington DC22800:16:1527900:04:2329501:01:017200:01:0525300:29:37 01:52:19 
27717 55MChristopher DacostaPoint Of Rocks MD30700:20:4626300:04:0925500:54:4429200:02:3526600:30:29 01:52:40 
278625MC48MGregory DumontAlexandria VA16400:14:3225800:04:0527200:55:5316100:01:2630300:37:06 01:53:01 
PlaceBibCoAgSNAMEcity/stateRankSWIMRankT1RankBikeRankT2RankRUNPENALTYTIMEDQ
27945 36MPeer MummeAnnandale VA22900:16:1628800:04:4129101:00:0410000:01:1027100:30:58 01:53:07 
280706NM33MJason FarbmanBethesda MD29900:19:5332000:06:3529701:01:1220200:01:379600:23:54 01:53:09 
281595 69MBrad KirleyOrange VA26200:17:2518600:03:1728300:58:4025300:01:5727700:32:01 01:53:18 
282278 35MRobert MaysAlexandria VA28000:17:5422200:03:3926500:55:1528700:02:2729100:34:18 01:53:32 
283702NM33MAndrew DunnNewport News VA27300:17:3729900:05:0130901:03:572000:00:5217200:26:09 01:53:34 
284128 49MEvan LeseAlexandria VA21700:15:5627300:04:1526400:55:1227700:02:1430000:36:22 01:53:57 
285694NM52MScott ParadisAlexandria VA30000:19:5429300:04:4628100:58:2529800:02:5521800:28:11 01:54:10 
286699NM43MManish NaikVienna VA17200:14:3827100:04:1328600:59:2727600:02:1429000:34:02 01:54:33 
287262 54MDavid HelmsSilver Spring MD28800:18:3423200:03:4422600:53:0126000:02:0130500:37:35 01:54:53 
2889MM42MGalo ChavesAnnandale VA32300:25:5823400:03:4528000:57:4427000:02:0514700:25:29 01:54:59 
289102 58MThomas KrahlingFredericksburg VA25700:17:0530200:05:0920200:51:3530500:03:1230600:38:24 01:55:24 
290686NM40MDustin DavisFredericksburg VA18900:15:0029500:04:4829601:01:12     01:55:57 
291398 48MDavid SimmsArlington VA30100:20:0925100:03:5827500:56:2923300:01:4728900:34:00 01:56:21 
292528 50MMiro LehkyCentreville VA24100:16:3023700:03:4729401:00:2028100:02:1828800:33:50 01:56:43 
293340 28MChris BlankenshipWashington DC31300:22:0129100:04:4327400:56:1523800:01:4928300:32:27 01:57:13 
294145 40MDavid LauferClifton VA25100:16:4824700:03:5531301:05:0818900:01:3326000:30:10 01:57:34 
295709NM23MZaid KokajaArlington VA31500:22:0931000:05:3829201:00:0617800:01:3122200:28:22 01:57:43 
296506 27MWilliam MarshWashington DC29100:18:4527400:04:1530801:03:5622800:01:4524800:29:28 01:58:07 
297599C30MJoseph HadleyArlington VA28200:17:5826400:04:0929801:01:164800:01:0029400:35:25 01:59:47 
298458 46MLonnie LazearReston VA30400:20:1725000:03:5829301:00:0929700:02:4828400:32:49 01:59:59 
29996 63MAlvin RichardsonNewport News VA3400:11:4222800:03:4232001:12:4130300:03:0624200:29:05 02:00:14 
300343 63MAlonzo CrittendenHampton VA22300:16:0526200:04:0825100:54:2130900:03:3031500:42:33 02:00:35 
301473 25MJason FarberArlington VA25000:16:4319900:03:2428800:59:4020900:01:3831100:40:36 02:01:59 
302242 36MKerry OldfieldLeesburg VA31700:23:3024200:03:5230301:01:4415800:01:2427400:31:39 02:02:07 
303325 28MRoberto MirandaArlington VA27100:17:3432200:07:0831001:04:2226700:02:0328500:32:56 02:04:01 
304161 67MSkip LambertChesapeake VA          00:02:0002:04:13 
305337 53MEric JohnsonWashington DC23700:16:2424800:03:5627700:57:2729400:02:4531600:44:06 02:04:35 
306695NM39MMathais RiveraWoodbridge VA22600:16:0828900:04:4130401:01:5330000:03:0130800:39:04 02:04:45 
307626MC45MTyson TolesSchenectady NY26400:17:2723600:03:4627000:55:4731200:03:5131700:44:28 02:05:17 
30852 52MAndrew SchubinAlexandria VA30300:20:1331500:06:0731801:10:0029100:02:3118600:26:52 02:05:41 
30931 40MNeil GoradiaBethesda MD26100:17:2025900:04:0629000:59:5831600:04:1131000:40:15 02:05:47 
PlaceBibCoAgSNAMEcity/stateRankSWIMRankT1RankBikeRankT2RankRUNPENALTYTIMEDQ
310687NM38MPhilip SokolowskiSterling VA30500:20:2932400:09:3429901:01:1931700:04:4326100:30:11 02:06:15 
311691NM32MRobert Kilpatrick IIManassas VA31400:22:0429000:04:4331401:06:0431300:03:5826800:30:42 02:07:29 
31280 39MKen KuselArlington VA29400:19:0629200:04:4330701:03:3725100:01:5630700:38:37 02:07:56 
313176 37MGlenn BallardWashington DC32500:31:3131600:06:1623900:53:2731800:04:5528100:32:17 02:08:24 
314309 55MMichael HarrisFairfax VA26900:17:2931200:06:0230001:01:3529900:02:5931300:41:06 02:09:10 
315350 22MJoe SullivanLaurel MD7600:12:4527800:04:2232101:14:2520500:01:3830100:36:43 02:09:50 
316405 39MVladislav GavriletsFairfax VA26300:17:2625700:04:0431601:07:5530700:03:1330400:37:32 02:10:07 
317710NM49MChris MunzFairfax VA24800:16:4231700:06:2131701:08:0130400:03:0829700:35:58 02:10:08 
318711NM56MTim GindlingCollege Park MD28900:18:3931900:06:3230601:02:2431000:03:3431400:41:24 02:12:31 
319620MC48MEric HoyWashington DC31800:23:3632300:07:4830201:01:4025200:01:5630900:39:11 02:14:10 
320261 46MAdrian ShawKing George VA18800:14:5730500:05:1831101:04:4430600:03:1331800:46:14 02:14:25 
32167 58MWilliam CarlinFredericksburg VA30600:20:4028500:04:3331201:04:4931500:04:0931200:40:42 02:14:50 
322392 39MErnest DellingerWarrenton VA32200:25:1131300:06:0431501:06:4729600:02:4829800:36:03 02:16:50 
323423 44MAdam KannapellCharlottesville VA21800:15:5832100:06:5732201:20:4324500:01:5329600:35:32 02:21:01 
324617MC53MGarry StiegmanLusby MD32400:28:1830700:05:3528200:58:2526600:02:0331900:46:58 02:21:17 
325602C36MKevin TakeguchiArlington VA23000:16:1730000:05:0423000:53:0631100:03:4632001:05:23 02:23:34 
32668 36MMichael JacksonWashington DC31000:21:3131800:06:3032301:24:4231900:05:3127000:30:53 02:29:05 

** Results are for the private use of participants and are the Intellectual Property of Set Up Events. Unauthorized use of these results is prohibited.